Time;durP1;ratioP1;P1;durP2;ratioP2;P2;SDS_P1;SDS_P2;PMS_P1;PMS_P2;Temp;Humidity;BMP_temperature;BMP_pressure;BME280_temperature;BME280_humidity;BME280_pressure;Samples;Min_cycle;Max_cycle;Signal;HPM_P1;HPM_P2
2021/05/21 00:01:26;;;;;;;;;;;;;;;27.52;35.02;100288.34;5139461;27;770;-39
2021/05/21 00:03:51;;;;;;;;;;;;;;;27.49;35.01;100281.47;5139501;27;830;-41
2021/05/21 00:06:16;;;;;;;;;;;;;;;27.48;34.92;100271.69;5139429;27;1894;-42
2021/05/21 00:08:41;;;;;;;;;;;;;;;27.50;35.16;100271.50;5139008;27;812;-39
2021/05/21 00:11:07;;;;;;;;;;;;;;;27.48;34.98;100265.44;5139019;27;917;-39
2021/05/21 00:13:32;;;;;;;;;;;;;;;27.50;35.02;100266.94;5139638;27;1000;-39
2021/05/21 00:15:57;;;;;;;;;;;;;;;27.50;35.34;100268.78;5139125;27;758;-41
2021/05/21 00:18:23;;;;;;;;;;;;;;;27.49;35.12;100261.72;5138944;27;754;-39
2021/05/21 00:20:48;;;;;;;;;;;;;;;27.47;35.27;100261.94;5139094;27;742;-39
2021/05/21 00:23:13;;;;;;;;;;;;;;;27.47;35.48;100253.00;5139329;27;810;-40
2021/05/21 00:25:38;;;;;;;;;;;;;;;27.51;34.96;100265.91;5138586;27;2021;-39
2021/05/21 00:28:04;;;;;;;;;;;;;;;27.49;34.91;100264.44;5138568;27;961;-40
2021/05/21 00:30:29;;;;;;;;;;;;;;;27.51;34.56;100265.06;5138809;27;746;-39
2021/05/21 00:32:54;;;;;;;;;;;;;;;27.49;34.71;100269.84;5138719;27;861;-42
2021/05/21 00:35:20;;;;;;;;;;;;;;;27.56;34.07;100273.41;5138895;27;838;-41
2021/05/21 00:37:45;;;;;;;;;;;;;;;27.59;33.60;100262.19;5138700;27;1421;-40
2021/05/21 00:40:11;;;;;;;;;;;;;;;27.54;33.37;100261.97;5138535;27;750;-41
2021/05/21 00:42:36;;;;;;;;;;;;;;;27.58;33.67;100262.41;5138271;27;1440;-40
2021/05/21 00:45:02;;;;;;;;;;;;;;;27.56;33.16;100265.28;5138330;27;1147;-40
2021/05/21 00:47:27;;;;;;;;;;;;;;;27.49;33.45;100275.25;5138086;27;1910;-39
2021/05/21 00:49:53;;;;;;;;;;;;;;;27.49;33.29;100276.06;5138682;27;798;-40
2021/05/21 00:52:18;;;;;;;;;;;;;;;27.50;33.12;100272.34;5138480;27;809;-40
2021/05/21 00:54:44;;;;;;;;;;;;;;;27.47;33.00;100264.63;5138413;27;777;-40
2021/05/21 00:57:09;;;;;;;;;;;;;;;27.43;33.18;100260.66;5137827;27;933;-42
2021/05/21 00:59:35;;;;;;;;;;;;;;;27.49;33.11;100259.84;5137950;27;790;-40
2021/05/21 01:02:00;;;;;;;;;;;;;;;27.45;33.38;100252.34;5138445;27;857;-38
2021/05/21 01:04:25;;;;;;;;;;;;;;;27.46;33.28;100248.63;5136842;27;797;-42
2021/05/21 01:06:50;;;;;;;;;;;;;;;27.51;32.95;100254.25;5138381;27;1971;-41
2021/05/21 01:09:16;;;;;;;;;;;;;;;27.44;32.97;100254.22;5138357;27;763;-42
2021/05/21 01:11:41;;;;;;;;;;;;;;;27.45;32.59;100253.19;5137324;27;1015;-42
2021/05/21 01:14:06;;;;;;;;;;;;;;;27.39;32.38;100253.97;5138175;27;731;-38
2021/05/21 01:16:32;;;;;;;;;;;;;;;27.44;32.36;100258.78;5138094;27;828;-41
2021/05/21 01:19:03;;;;;;;;;;;;;;;27.40;32.52;100263.75;5137296;27;1077;-38
2021/05/21 01:21:29;;;;;;;;;;;;;;;27.42;32.48;100269.78;5137918;27;783;-37
2021/05/21 01:23:54;;;;;;;;;;;;;;;27.41;32.10;100278.09;5137741;27;818;-37
2021/05/21 01:26:19;;;;;;;;;;;;;;;27.38;32.42;100272.03;5137057;27;1956;-36
2021/05/21 01:28:44;;;;;;;;;;;;;;;27.42;32.01;100274.34;5137926;27;893;-38
2021/05/21 01:31:10;;;;;;;;;;;;;;;27.33;32.15;100282.59;5136617;27;743;-37
2021/05/21 01:33:35;;;;;;;;;;;;;;;27.35;31.60;100285.94;5137125;27;820;-37
2021/05/21 01:36:00;;;;;;;;;;;;;;;27.30;31.91;100295.66;5137775;27;818;-38
2021/05/21 01:38:26;;;;;;;;;;;;;;;27.29;31.64;100297.53;5137766;27;834;-37
2021/05/21 01:40:51;;;;;;;;;;;;;;;27.25;31.70;100289.00;5136211;27;774;-41
2021/05/21 01:43:16;;;;;;;;;;;;;;;27.30;31.84;100279.44;5136073;27;961;-36
2021/05/21 01:45:42;;;;;;;;;;;;;;;27.27;31.88;100283.38;5137401;27;1913;-41
2021/05/21 01:48:07;;;;;;;;;;;;;;;27.20;31.78;100283.34;5137663;27;758;-37
2021/05/21 01:50:33;;;;;;;;;;;;;;;27.16;32.08;100287.44;5137801;27;801;-37
2021/05/21 01:52:58;;;;;;;;;;;;;;;27.21;31.90;100284.19;5137589;27;806;-37
2021/05/21 01:55:23;;;;;;;;;;;;;;;27.24;32.07;100292.69;5137146;28;786;-37
2021/05/21 01:57:48;;;;;;;;;;;;;;;27.19;32.30;100291.63;5137184;28;980;-37
2021/05/21 02:00:14;;;;;;;;;;;;;;;27.16;32.46;100292.03;5137083;28;762;-37
2021/05/21 02:02:39;;;;;;;;;;;;;;;27.11;32.86;100287.22;5137602;28;727;-37
2021/05/21 02:05:05;;;;;;;;;;;;;;;27.03;33.86;100285.47;5137468;28;770;-37
2021/05/21 02:07:30;;;;;;;;;;;;;;;27.10;33.06;100290.91;5136874;28;1956;-39
2021/05/21 02:10:00;;;;;;;;;;;;;;;27.09;33.18;100289.25;5137208;28;850;-37
2021/05/21 02:12:26;;;;;;;;;;;;;;;27.05;33.07;100283.41;5136953;28;949;-37
2021/05/21 02:14:51;;;;;;;;;;;;;;;27.13;32.94;100287.81;5137157;28;830;-41
2021/05/21 02:17:17;;;;;;;;;;;;;;;27.08;32.86;100288.41;5137214;28;830;-37
2021/05/21 02:19:42;;;;;;;;;;;;;;;27.13;32.81;100291.38;5137448;28;857;-42
2021/05/21 02:22:07;;;;;;;;;;;;;;;27.12;32.88;100288.88;5137464;28;755;-36
2021/05/21 02:24:33;;;;;;;;;;;;;;;27.19;32.86;100286.22;5136970;28;715;-40
2021/05/21 02:26:59;;;;;;;;;;;;;;;27.15;32.94;100293.88;5136700;28;2023;-37
2021/05/21 02:29:24;;;;;;;;;;;;;;;27.13;33.29;100302.16;5137175;28;810;-37
2021/05/21 02:31:49;;;;;;;;;;;;;;;27.13;33.00;100299.47;5137054;28;751;-41
2021/05/21 02:34:14;;;;;;;;;;;;;;;27.16;33.01;100300.13;5137479;28;755;-37
2021/05/21 02:36:40;;;;;;;;;;;;;;;27.15;33.38;100301.97;5137033;28;837;-38
2021/05/21 02:39:05;;;;;;;;;;;;;;;27.08;33.23;100310.00;5137232;28;754;-38
2021/05/21 02:41:30;;;;;;;;;;;;;;;27.12;33.40;100308.63;5136714;28;972;-39
2021/05/21 02:43:56;;;;;;;;;;;;;;;27.13;33.18;100312.13;5137198;27;788;-41
2021/05/21 02:46:21;;;;;;;;;;;;;;;27.14;32.91;100316.53;5140650;27;1963;-41
2021/05/21 02:48:46;;;;;;;;;;;;;;;27.13;33.05;100307.56;5140697;27;672;-36
2021/05/21 02:51:11;;;;;;;;;;;;;;;27.17;32.99;100304.47;5140861;27;1404;-41
2021/05/21 02:53:46;;;;;;;;;;;;;;;27.21;32.64;100314.69;5140669;27;824;-36
2021/05/21 02:56:11;;;;;;;;;;;;;;;27.18;32.56;100322.34;5140521;27;996;-42
2021/05/21 02:58:36;;;;;;;;;;;;;;;27.17;32.54;100324.22;5140594;27;945;-38
2021/05/21 03:01:02;;;;;;;;;;;;;;;26.91;31.32;100325.59;5140700;27;802;-35
2021/05/21 03:03:27;;;;;;;;;;;;;;;26.45;31.34;100327.59;5140689;27;774;-40
2021/05/21 03:05:55;;;;;;;;;;;;;;;25.95;31.37;100321.91;5140482;27;1960;-41
2021/05/21 03:08:20;;;;;;;;;;;;;;;25.55;32.56;100306.81;5140469;27;825;-35
2021/05/21 03:10:45;;;;;;;;;;;;;;;25.52;32.05;100308.03;5140617;27;806;-36
2021/05/21 03:13:11;;;;;;;;;;;;;;;25.13;32.31;100299.09;5140266;27;1008;-35
2021/05/21 03:15:36;;;;;;;;;;;;;;;25.20;32.14;100293.84;5140301;27;774;-36
2021/05/21 03:18:02;;;;;;;;;;;;;;;25.01;32.17;100300.53;5140270;27;758;-39
2021/05/21 03:20:28;;;;;;;;;;;;;;;24.86;32.38;100306.66;5140461;27;841;-39
2021/05/21 03:22:53;;;;;;;;;;;;;;;24.60;32.82;100305.16;5140033;27;759;-37
2021/05/21 03:25:18;;;;;;;;;;;;;;;24.43;33.26;100309.75;5140040;27;809;-38
2021/05/21 03:27:44;;;;;;;;;;;;;;;24.37;33.32;100316.69;5139881;27;1015;-38
2021/05/21 03:30:09;;;;;;;;;;;;;;;24.39;33.59;100316.50;5140069;27;771;-39
2021/05/21 03:32:35;;;;;;;;;;;;;;;23.84;34.48;100320.69;5140334;27;795;-37
2021/05/21 03:35:00;;;;;;;;;;;;;;;23.46;35.51;100321.25;5140286;27;750;-38
2021/05/21 03:37:25;;;;;;;;;;;;;;;24.01;34.60;100334.06;5140034;27;750;-38
2021/05/21 03:39:51;;;;;;;;;;;;;;;23.72;35.13;100344.38;5139759;27;838;-36
2021/05/21 03:42:16;;;;;;;;;;;;;;;22.51;37.72;100353.56;5139651;27;909;-37
2021/05/21 03:44:41;;;;;;;;;;;;;;;22.74;37.39;100358.34;5139652;27;1269;-38
2021/05/21 03:47:07;;;;;;;;;;;;;;;22.95;37.02;100361.59;5139344;27;1909;-38
2021/05/21 03:49:32;;;;;;;;;;;;;;;22.98;37.09;100359.44;5139830;27;856;-36
2021/05/21 03:51:58;;;;;;;;;;;;;;;23.31;36.28;100364.00;5139488;27;749;-38
2021/05/21 03:54:23;;;;;;;;;;;;;;;23.69;36.38;100358.13;5139566;27;790;-37
2021/05/21 03:56:49;;;;;;;;;;;;;;;24.11;35.72;100366.13;5139076;27;1074;-37
2021/05/21 03:59:14;;;;;;;;;;;;;;;24.37;35.23;100351.63;5139736;27;858;-39
2021/05/21 04:01:39;;;;;;;;;;;;;;;24.41;35.23;100355.63;5138140;27;751;-39
2021/05/21 04:04:05;;;;;;;;;;;;;;;24.47;35.02;100351.44;5139694;27;808;-42
2021/05/21 04:06:30;;;;;;;;;;;;;;;24.60;34.50;100358.09;5139032;27;1976;-35
2021/05/21 04:08:55;;;;;;;;;;;;;;;24.62;34.67;100346.16;5139475;27;838;-42
2021/05/21 04:11:21;;;;;;;;;;;;;;;24.74;34.36;100343.06;5138794;27;987;-35
2021/05/21 04:13:46;;;;;;;;;;;;;;;24.74;34.22;100341.19;5139477;27;710;-38
2021/05/21 04:16:13;;;;;;;;;;;;;;;24.76;34.37;100343.69;5139049;27;796;-38
2021/05/21 04:18:39;;;;;;;;;;;;;;;24.71;34.39;100336.16;5139356;27;851;-35
2021/05/21 04:21:04;;;;;;;;;;;;;;;24.78;34.23;100339.00;5139119;27;814;-42
2021/05/21 04:23:29;;;;;;;;;;;;;;;24.82;34.11;100334.94;5139007;27;822;-38
2021/05/21 04:25:54;;;;;;;;;;;;;;;24.90;33.96;100344.81;5139033;27;1970;-42
2021/05/21 04:28:20;;;;;;;;;;;;;;;24.73;34.05;100346.75;5138539;27;1004;-39
2021/05/21 04:30:45;;;;;;;;;;;;;;;24.67;33.95;100351.81;5138817;27;742;-43
2021/05/21 04:33:10;;;;;;;;;;;;;;;24.68;34.02;100349.97;5139003;27;818;-44
2021/05/21 04:35:36;;;;;;;;;;;;;;;24.75;33.71;100361.72;5138862;27;734;-47
2021/05/21 04:38:01;;;;;;;;;;;;;;;24.82;33.83;100369.91;5139062;27;837;-45
2021/05/21 04:40:26;;;;;;;;;;;;;;;25.01;33.53;100384.78;5138887;27;822;-37
2021/05/21 04:42:51;;;;;;;;;;;;;;;25.18;33.54;100387.38;5138618;27;897;-39
2021/05/21 04:45:17;;;;;;;;;;;;;;;25.32;33.71;100391.16;5138313;27;1117;-33
2021/05/21 04:47:42;;;;;;;;;;;;;;;25.36;34.19;100380.88;5138696;27;1905;-41
2021/05/21 04:50:08;;;;;;;;;;;;;;;25.44;34.08;100389.69;5139176;27;791;-37
2021/05/21 04:52:33;;;;;;;;;;;;;;;25.53;34.41;100397.72;5138106;27;739;-36
2021/05/21 04:54:58;;;;;;;;;;;;;;;25.60;34.47;100409.44;5138459;27;739;-35
2021/05/21 04:57:24;;;;;;;;;;;;;;;25.55;34.34;100399.22;5138230;27;1012;-37
2021/05/21 04:59:49;;;;;;;;;;;;;;;25.66;34.21;100403.38;5138187;27;771;-36
2021/05/21 05:02:14;;;;;;;;;;;;;;;25.62;34.64;100410.13;5138366;27;791;-36
2021/05/21 05:04:40;;;;;;;;;;;;;;;25.65;33.84;100408.94;5138693;27;838;-35
2021/05/21 05:07:05;;;;;;;;;;;;;;;25.52;33.38;100399.59;5137360;27;1897;-36
2021/05/21 05:09:30;;;;;;;;;;;;;;;25.59;33.75;100382.69;5134672;27;991;-35
2021/05/21 05:11:57;;;;;;;;;;;;;;;25.55;33.33;100388.47;5117240;28;930;-37
2021/05/21 05:14:23;;;;;;;;;;;;;;;25.59;33.14;100388.09;5117345;28;770;-35
2021/05/21 05:16:48;;;;;;;;;;;;;;;25.54;33.05;100391.34;5117465;28;762;-37
2021/05/21 05:19:13;;;;;;;;;;;;;;;25.60;32.95;100390.59;5117531;28;802;-41
2021/05/21 05:21:40;;;;;;;;;;;;;;;25.66;32.78;100411.44;5117210;28;795;-37
2021/05/21 05:24:06;;;;;;;;;;;;;;;25.64;32.92;100410.78;5117634;28;786;-41
2021/05/21 05:26:31;;;;;;;;;;;;;;;25.92;32.91;100412.06;5115290;28;1960;-36
2021/05/21 05:28:57;;;;;;;;;;;;;;;26.13;32.32;100418.59;5117096;28;763;-39
2021/05/21 05:31:22;;;;;;;;;;;;;;;26.23;32.10;100405.69;5117103;28;829;-36
2021/05/21 05:33:48;;;;;;;;;;;;;;;26.32;31.85;100421.78;5117652;28;762;-35
2021/05/21 05:36:13;;;;;;;;;;;;;;;26.38;31.95;100424.59;5116577;28;858;-40
2021/05/21 05:38:39;;;;;;;;;;;;;;;26.44;31.79;100419.47;5117036;28;926;-37
2021/05/21 05:41:04;;;;;;;;;;;;;;;26.59;31.52;100428.38;5117258;28;731;-37
2021/05/21 05:43:29;;;;;;;;;;;;;;;26.39;32.12;100423.56;5114694;28;993;-37
2021/05/21 05:45:54;;;;;;;;;;;;;;;26.36;32.07;100420.41;5116868;28;1988;-43
2021/05/21 05:48:20;;;;;;;;;;;;;;;26.31;32.20;100425.50;5116865;28;775;-42
2021/05/21 05:50:46;;;;;;;;;;;;;;;26.48;31.65;100424.31;5116881;28;766;-29
2021/05/21 05:53:11;;;;;;;;;;;;;;;26.40;30.88;100416.31;5116803;28;787;-32
2021/05/21 05:55:36;;;;;;;;;;;;;;;26.19;31.04;100414.34;5116919;28;779;-45
2021/05/21 05:58:01;;;;;;;;;;;;;;;26.13;31.41;100421.28;5116035;28;969;-31
2021/05/21 06:00:27;;;;;;;;;;;;;;;26.25;31.42;100414.44;5116936;28;771;-44
2021/05/21 06:02:52;;;;;;;;;;;;;;;26.44;31.20;100416.78;5116595;28;846;-30
2021/05/21 06:05:17;;;;;;;;;;;;;;;26.61;31.14;100418.25;5116214;28;799;-31
2021/05/21 06:07:43;;;;;;;;;;;;;;;26.58;30.93;100418.63;5116681;28;1891;-49
2021/05/21 06:10:08;;;;;;;;;;;;;;;26.59;31.11;100408.69;5116579;28;509;-33
2021/05/21 06:12:34;;;;;;;;;;;;;;;26.55;30.85;100419.00;5115709;28;962;-49
2021/05/21 06:14:59;;;;;;;;;;;;;;;26.48;30.93;100421.63;5116468;28;814;-33
2021/05/21 06:17:24;;;;;;;;;;;;;;;26.56;31.11;100422.56;5117338;28;802;-31
2021/05/21 06:19:50;;;;;;;;;;;;;;;26.62;30.91;100429.88;5119548;28;842;-38
2021/05/21 06:22:15;;;;;;;;;;;;;;;26.60;31.02;100427.38;5120531;28;839;-46
2021/05/21 06:24:43;;;;;;;;;;;;;;;26.64;30.99;100431.34;5121317;28;830;-47
2021/05/21 06:29:34;;;;;;;;;;;;;;;26.60;30.66;100421.97;5120973;28;727;-46
2021/05/21 06:31:59;;;;;;;;;;;;;;;26.64;30.76;100422.44;5120228;28;755;-34
2021/05/21 06:34:24;;;;;;;;;;;;;;;26.68;30.72;100423.72;5120627;28;740;-43
2021/05/21 06:36:49;;;;;;;;;;;;;;;26.86;30.38;100420.63;5120798;28;762;-35
2021/05/21 06:39:15;;;;;;;;;;;;;;;26.88;30.34;100423.97;5120668;28;748;-33
2021/05/21 06:41:40;;;;;;;;;;;;;;;26.82;30.55;100415.81;5119730;28;934;-35
2021/05/21 06:44:05;;;;;;;;;;;;;;;26.91;30.31;100414.66;5120127;28;1071;-34
2021/05/21 06:46:31;;;;;;;;;;;;;;;26.98;30.26;100412.03;5109662;28;1934;-34
2021/05/21 06:48:56;;;;;;;;;;;;;;;26.97;30.33;100413.06;5099280;28;893;-43
2021/05/21 06:51:22;;;;;;;;;;;;;;;26.82;30.44;100418.50;5100328;28;1103;-47
2021/05/21 06:53:48;;;;;;;;;;;;;;;26.71;30.45;100420.66;5119554;28;1025;-31
2021/05/21 06:56:15;;;;;;;;;;;;;;;26.75;30.26;100419.28;5120906;27;909;-39
2021/05/21 06:58:40;;;;;;;;;;;;;;;26.86;30.03;100420.63;5140272;27;1004;-34
2021/05/21 07:01:06;;;;;;;;;;;;;;;26.64;30.29;100420.56;5140916;27;766;-43
2021/05/21 07:03:31;;;;;;;;;;;;;;;26.85;30.38;100420.81;5140200;27;835;-34
2021/05/21 07:05:56;;;;;;;;;;;;;;;27.00;30.11;100428.88;5140364;27;1901;-34
2021/05/21 07:08:22;;;;;;;;;;;;;;;27.09;30.37;100432.34;5140691;27;877;-32
2021/05/21 07:10:47;;;;;;;;;;;;;;;26.81;30.55;100433.03;5140482;27;742;-34
2021/05/21 07:13:16;;;;;;;;;;;;;;;26.70;30.51;100431.63;5139815;27;961;-35
2021/05/21 07:15:41;;;;;;;;;;;;;;;26.69;30.93;100424.56;5140380;27;718;-37
2021/05/21 07:18:06;;;;;;;;;;;;;;;26.69;31.21;100411.09;5140135;27;691;-36
2021/05/21 07:20:32;;;;;;;;;;;;;;;26.78;31.09;100426.13;5140203;27;755;-42
2021/05/21 07:22:57;;;;;;;;;;;;;;;26.73;31.27;100423.16;5140313;27;743;-38
2021/05/21 07:25:23;;;;;;;;;;;;;;;26.75;31.75;100413.88;5140084;27;804;-33
2021/05/21 07:27:48;;;;;;;;;;;;;;;26.93;31.35;100411.75;5139445;27;1965;-33
2021/05/21 07:30:14;;;;;;;;;;;;;;;27.01;31.38;100422.44;5139278;27;834;-34
2021/05/21 07:32:39;;;;;;;;;;;;;;;27.15;30.94;100423.47;5139634;27;791;-29
2021/05/21 07:35:06;;;;;;;;;;;;;;;27.23;31.03;100428.75;5139265;27;1387;-37
2021/05/21 07:37:31;;;;;;;;;;;;;;;27.26;31.00;100428.38;5140159;27;781;-33
2021/05/21 07:39:56;;;;;;;;;;;;;;;27.32;30.96;100434.03;5140094;27;750;-31
2021/05/21 07:42:21;;;;;;;;;;;;;;;27.34;31.07;100438.19;5138903;27;980;-42
2021/05/21 07:44:47;;;;;;;;;;;;;;;27.35;31.02;100437.19;5139567;27;1081;-46
2021/05/21 07:47:12;;;;;;;;;;;;;;;27.44;31.13;100437.91;5139809;27;1905;-34
2021/05/21 07:49:37;;;;;;;;;;;;;;;27.53;31.05;100429.69;5139612;27;780;-47
2021/05/21 07:52:03;;;;;;;;;;;;;;;27.51;30.85;100435.25;5139667;27;794;-33
2021/05/21 07:54:28;;;;;;;;;;;;;;;27.50;31.00;100436.28;5139854;27;814;-34
2021/05/21 07:56:53;;;;;;;;;;;;;;;27.54;31.08;100442.16;5138691;27;933;-34
2021/05/21 07:59:18;;;;;;;;;;;;;;;27.52;31.41;100436.94;5139756;27;754;-33
2021/05/21 08:01:44;;;;;;;;;;;;;;;27.56;31.24;100427.41;5139726;27;794;-33
2021/05/21 08:04:09;;;;;;;;;;;;;;;27.56;30.92;100442.78;5138992;27;805;-34
2021/05/21 08:06:34;;;;;;;;;;;;;;;27.61;30.91;100443.06;5139332;27;1958;-34
2021/05/21 08:09:03;;;;;;;;;;;;;;;27.54;31.00;100448.38;5139763;27;796;-40
2021/05/21 08:11:29;;;;;;;;;;;;;;;27.49;31.25;100440.84;5137026;27;956;-33
2021/05/21 08:13:54;;;;;;;;;;;;;;;27.51;31.43;100436.09;5137548;27;1098;-33
2021/05/21 08:16:19;;;;;;;;;;;;;;;27.59;31.39;100451.31;5139673;27;779;-33
2021/05/21 08:18:45;;;;;;;;;;;;;;;27.56;31.37;100445.50;5139161;27;813;-38
2021/05/21 08:21:10;;;;;;;;;;;;;;;27.58;31.54;100451.53;5138625;27;1448;-33
2021/05/21 08:23:37;;;;;;;;;;;;;;;27.66;31.44;100448.69;5139543;27;770;-42
2021/05/21 08:26:03;;;;;;;;;;;;;;;27.66;31.42;100459.50;5138564;27;1969;-35
2021/05/21 08:28:29;;;;;;;;;;;;;;;27.59;31.57;100458.63;5138070;27;956;-34
2021/05/21 08:30:55;;;;;;;;;;;;;;;27.57;31.28;100472.31;5139118;27;814;-35
2021/05/21 08:33:20;;;;;;;;;;;;;;;27.63;31.45;100468.00;5138247;27;823;-34
2021/05/21 08:35:46;;;;;;;;;;;;;;;27.60;31.45;100471.09;5138233;27;849;-32
2021/05/21 08:38:12;;;;;;;;;;;;;;;27.61;31.75;100476.28;5138873;27;850;-31
2021/05/21 08:40:38;;;;;;;;;;;;;;;27.63;31.73;100470.69;5138243;27;769;-43
2021/05/21 08:43:07;;;;;;;;;;;;;;;27.60;31.59;100474.63;5138469;27;984;-58
2021/05/21 08:45:33;;;;;;;;;;;;;;;27.67;31.79;100473.84;5138338;27;1917;-37
2021/05/21 08:47:58;;;;;;;;;;;;;;;27.69;31.68;100472.69;5138131;27;850;-38
2021/05/21 08:50:24;;;;;;;;;;;;;;;27.73;31.66;100476.66;5138388;27;811;-36
2021/05/21 08:52:49;;;;;;;;;;;;;;;27.71;31.70;100469.78;5138560;27;781;-33
2021/05/21 08:55:15;;;;;;;;;;;;;;;27.74;31.51;100485.59;5138048;27;739;-35
2021/05/21 08:57:41;;;;;;;;;;;;;;;27.68;31.84;100473.69;5137803;27;972;-33
2021/05/21 09:00:06;;;;;;;;;;;;;;;27.68;31.86;100486.31;5137114;27;765;-48
2021/05/21 09:02:33;;;;;;;;;;;;;;;27.70;31.96;100487.00;5138281;27;755;-33
2021/05/21 09:04:59;;;;;;;;;;;;;;;27.69;31.85;100483.47;5138069;27;842;-33
2021/05/21 09:07:25;;;;;;;;;;;;;;;27.78;31.61;100491.47;5138139;27;1894;-31
2021/05/21 09:09:51;;;;;;;;;;;;;;;27.79;31.69;100487.72;5138158;27;822;-35
2021/05/21 09:12:18;;;;;;;;;;;;;;;27.76;31.80;100497.03;5137332;27;1084;-49
2021/05/21 09:15:00;;;;;;;;;;;;;;;27.78;31.79;100483.34;5137806;27;794;-33
2021/05/21 09:17:26;;;;;;;;;;;;;;;27.80;31.37;100498.34;5138004;27;837;-36
2021/05/21 09:19:51;;;;;;;;;;;;;;;27.88;31.69;100500.06;5137785;27;858;-46
2021/05/21 09:22:16;;;;;;;;;;;;;;;27.51;30.70;100497.38;5137817;27;766;-47
2021/05/21 09:24:43;;;;;;;;;;;;;;;27.27;30.70;100491.31;5137954;27;865;-31
2021/05/21 09:27:09;;;;;;;;;;;;;;;27.54;30.59;100502.44;5137369;27;1895;-32
2021/05/21 09:29:46;;;;;;;;;;;;;;;27.54;31.20;100496.19;5137579;27;799;-48
2021/05/21 09:32:24;;;;;;;;;;;;;;;27.47;31.37;100494.25;5137888;27;763;-45
2021/05/21 09:34:59;;;;;;;;;;;;;;;27.54;30.83;100499.72;5137537;27;878;-37
2021/05/21 09:37:25;;;;;;;;;;;;;;;27.57;30.69;100501.19;5137191;27;795;-37
2021/05/21 09:40:19;;;;;;;;;;;;;;;27.42;30.40;100507.50;5138094;27;818;-50
2021/05/21 09:42:51;;;;;;;;;;;;;;;27.49;30.53;100502.16;5123327;27;1562;-37
2021/05/21 09:45:35;;;;;;;;;;;;;;;27.54;30.41;100510.53;5137274;27;1267;-39
2021/05/21 09:48:03;;;;;;;;;;;;;;;27.61;30.27;100505.19;5137651;27;767;-37
2021/05/21 09:50:38;;;;;;;;;;;;;;;27.61;30.38;100506.00;5137082;27;843;-37
2021/05/21 09:53:07;;;;;;;;;;;;;;;27.36;30.55;100494.75;5138019;27;739;-31
2021/05/21 09:55:43;;;;;;;;;;;;;;;27.24;30.57;100499.81;5137098;27;735;-37
2021/05/21 09:58:08;;;;;;;;;;;;;;;27.11;30.91;100497.78;5136812;28;968;-35
2021/05/21 10:00:33;;;;;;;;;;;;;;;27.09;31.20;100500.66;5137863;28;810;-38
2021/05/21 10:02:59;;;;;;;;;;;;;;;27.21;30.40;100486.69;5137175;28;834;-37
2021/05/21 10:05:24;;;;;;;;;;;;;;;27.15;31.47;100504.47;5137082;28;822;-47
2021/05/21 10:07:52;;;;;;;;;;;;;;;27.18;30.54;100487.03;5135750;28;1909;-38
2021/05/21 10:10:18;;;;;;;;;;;;;;;27.10;31.33;100488.00;5137154;28;842;-44
2021/05/21 10:12:44;;;;;;;;;;;;;;;27.10;31.39;100496.09;5136787;28;1043;-48
2021/05/21 10:15:09;;;;;;;;;;;;;;;26.99;32.22;100492.81;5137309;28;770;-36
2021/05/21 10:17:34;;;;;;;;;;;;;;;27.02;32.05;100500.59;5137220;28;775;-36
2021/05/21 10:20:00;;;;;;;;;;;;;;;27.09;31.62;100497.13;5135511;28;1463;-37
2021/05/21 10:22:26;;;;;;;;;;;;;;;27.00;31.77;100505.31;5135702;28;838;-44
2021/05/21 10:24:52;;;;;;;;;;;;;;;27.00;31.70;100497.22;5136552;28;806;-48
2021/05/21 10:27:28;;;;;;;;;;;;;;;27.08;32.00;100482.78;5136567;28;1910;-35
2021/05/21 10:30:01;;;;;;;;;;;;;;;27.17;31.79;100494.34;5136291;28;804;-47
2021/05/21 10:32:30;;;;;;;;;;;;;;;27.10;31.80;100496.94;5136905;28;739;-38
2021/05/21 10:34:55;;;;;;;;;;;;;;;27.16;32.66;100492.63;5136853;28;810;-47
2021/05/21 10:37:21;;;;;;;;;;;;;;;27.19;32.49;100497.69;5137053;28;791;-51
2021/05/21 10:39:59;;;;;;;;;;;;;;;27.19;32.54;100495.00;5136873;28;908;-31
2021/05/21 10:42:24;;;;;;;;;;;;;;;27.21;32.59;100503.72;5136040;28;968;-56
2021/05/21 10:44:50;;;;;;;;;;;;;;;27.22;32.46;100518.91;5136848;28;1210;-36
2021/05/21 10:47:25;;;;;;;;;;;;;;;27.18;32.90;100522.16;5136745;28;1891;-32
2021/05/21 10:49:50;;;;;;;;;;;;;;;27.22;33.00;100518.06;5136548;28;829;-45
2021/05/21 10:52:15;;;;;;;;;;;;;;;27.24;32.67;100514.13;5137194;28;818;-44
2021/05/21 10:54:41;;;;;;;;;;;;;;;27.23;32.55;100523.28;5136636;28;738;-36
2021/05/21 10:57:09;;;;;;;;;;;;;;;27.20;32.50;100523.66;5136331;28;949;-44
2021/05/21 11:00:00;;;;;;;;;;;;;;;27.17;32.75;100515.09;5137346;28;805;-36
2021/05/21 11:02:40;;;;;;;;;;;;;;;27.28;32.41;100529.97;5136381;28;861;-34
2021/05/21 11:05:24;;;;;;;;;;;;;;;27.39;32.31;100533.00;5137069;27;758;-41
2021/05/21 11:07:53;;;;;;;;;;;;;;;27.39;32.16;100538.41;5140762;27;1964;-35
2021/05/21 11:10:28;;;;;;;;;;;;;;;27.47;32.17;100531.22;5139943;27;1145;-35
2021/05/21 11:12:59;;;;;;;;;;;;;;;27.59;32.12;100532.38;5138909;27;1440;-36
2021/05/21 11:15:48;;;;;;;;;;;;;;;27.63;31.73;100539.09;5140367;27;786;-46
2021/05/21 11:18:16;;;;;;;;;;;;;;;27.67;32.14;100536.84;5131200;27;1642;-36
2021/05/21 11:20:54;;;;;;;;;;;;;;;27.69;32.37;100539.38;5140160;27;818;-43
2021/05/21 11:23:26;;;;;;;;;;;;;;;27.76;32.23;100524.06;5140366;27;755;-35
2021/05/21 11:26:01;;;;;;;;;;;;;;;27.76;32.25;100529.47;5139715;27;1902;-40
2021/05/21 11:28:27;;;;;;;;;;;;;;;27.70;32.33;100543.75;5140123;27;945;-34
2021/05/21 11:30:53;;;;;;;;;;;;;;;27.75;32.17;100541.31;5139164;27;897;-47
2021/05/21 11:33:19;;;;;;;;;;;;;;;27.80;32.26;100551.53;5139699;27;760;-34
2021/05/21 11:35:45;;;;;;;;;;;;;;;27.76;32.33;100551.09;5140168;27;775;-47
2021/05/21 11:38:10;;;;;;;;;;;;;;;27.88;32.23;100559.53;5139721;27;812;-30
2021/05/21 11:40:35;;;;;;;;;;;;;;;27.87;32.15;100560.56;5139468;27;770;-42
2021/05/21 11:43:01;;;;;;;;;;;;;;;27.83;32.30;100553.84;5139556;27;925;-35
2021/05/21 11:45:28;;;;;;;;;;;;;;;27.84;31.84;100559.06;5139419;27;1126;-36
2021/05/21 11:47:54;;;;;;;;;;;;;;;27.96;32.25;100563.97;5139416;27;1903;-45
2021/05/21 11:50:25;;;;;;;;;;;;;;;27.95;31.99;100565.00;5140169;27;751;-35
2021/05/21 11:52:51;;;;;;;;;;;;;;;27.93;31.80;100569.75;5139476;27;819;-35
2021/05/21 11:55:16;;;;;;;;;;;;;;;27.95;31.93;100565.00;5139263;27;759;-38
2021/05/21 11:57:41;;;;;;;;;;;;;;;27.96;31.91;100558.56;5139331;27;964;-37
2021/05/21 12:00:07;;;;;;;;;;;;;;;27.96;31.79;100567.50;5139627;27;893;-42
2021/05/21 12:02:32;;;;;;;;;;;;;;;27.98;31.72;100570.00;5139374;27;882;-34
2021/05/21 12:04:57;;;;;;;;;;;;;;;28.00;32.02;100562.56;5139872;27;779;-35
2021/05/21 12:07:26;;;;;;;;;;;;;;;28.05;31.96;100567.38;5137756;27;1905;-34
2021/05/21 12:09:52;;;;;;;;;;;;;;;28.09;31.88;100564.09;5139215;27;829;-41
2021/05/21 12:12:17;;;;;;;;;;;;;;;28.10;31.93;100564.94;5138969;27;961;-36
2021/05/21 12:14:42;;;;;;;;;;;;;;;28.13;31.78;100561.84;5137614;27;1605;-33
2021/05/21 12:17:08;;;;;;;;;;;;;;;28.09;32.03;100558.66;5136823;27;852;-36
2021/05/21 12:19:33;;;;;;;;;;;;;;;28.05;31.79;100573.63;5139266;27;758;-41
2021/05/21 12:21:58;;;;;;;;;;;;;;;27.67;31.43;100561.16;5119527;27;823;-33
2021/05/21 12:24:24;;;;;;;;;;;;;;;27.47;32.15;100552.84;5117989;28;1412;-42
2021/05/21 12:26:52;;;;;;;;;;;;;;;27.32;32.19;100548.31;5118221;28;1971;-33
2021/05/21 12:29:17;;;;;;;;;;;;;;;27.30;32.26;100554.91;5117004;28;829;-46
2021/05/21 12:31:45;;;;;;;;;;;;;;;27.19;33.33;100557.09;5118208;28;805;-43
2021/05/21 12:34:11;;;;;;;;;;;;;;;27.17;32.90;100566.38;5118425;28;759;-42
2021/05/21 12:36:36;;;;;;;;;;;;;;;27.17;32.42;100555.59;5117938;28;610;-43
2021/05/21 12:39:05;;;;;;;;;;;;;;;27.12;32.86;100557.00;5118131;28;752;-40
2021/05/21 12:41:34;;;;;;;;;;;;;;;27.01;33.21;100563.69;5121335;27;972;-39
2021/05/21 12:44:19;;;;;;;;;;;;;;;27.12;33.18;100565.09;5138342;27;781;-33
2021/05/21 12:46:48;;;;;;;;;;;;;;;27.08;33.29;100561.09;5138829;27;1921;-33
2021/05/21 12:49:16;;;;;;;;;;;;;;;26.99;33.39;100571.09;5118543;27;1164;-44
2021/05/21 12:51:45;;;;;;;;;;;;;;;26.94;33.52;100567.31;5118088;28;782;-43
2021/05/21 12:54:18;;;;;;;;;;;;;;;27.02;33.38;100575.34;5116512;28;783;-34